Cherryville, Missouri
Current Conditions -  °F | °C
As of 3:32 PM on Friday 19 Dec 2014 (Local Time) from KVIH Reporting Station
Overcast Overcast  
Wind Chill: 35°   Ceiling: 800
Heat Index: 35°   Visibility: 10mi
Dew Point: 31°   Wind: 3mph
Humidity: 85%   Direction: NA
Pressure: 30.19"   Gusts: NA
Location:  37.85°N, 91.28°W
Report Text: KVIH 192132Z AUTO VRB03KT 10SM BKN008 OVC012 02/M01 A3019 RMK AO2 CIG 007V011 T00171006
Loading
Personal Weather Stations






























Interactive Weather Map New forecast layout! Learn more

10-Day Weather Forecast

Advertisements
Track Severe Weather on mobile